sensor_id;sensor_type;location;lat;lon;timestamp;temperature;humidity
58339;DHT22;48278;52.704;6.536;2022-09-13T00:00:36;16.40;99.90
58339;DHT22;48278;52.704;6.536;2022-09-13T00:03:03;16.40;99.90
58339;DHT22;48278;52.704;6.536;2022-09-13T00:05:29;16.30;99.90
58339;DHT22;48278;52.704;6.536;2022-09-13T00:07:56;16.30;99.90
58339;DHT22;48278;52.704;6.536;2022-09-13T00:10:23;16.20;99.90
58339;DHT22;48278;52.704;6.536;2022-09-13T00:12:49;16.20;99.90
58339;DHT22;48278;52.704;6.536;2022-09-13T00:15:15;16.10;99.90
58339;DHT22;48278;52.704;6.536;2022-09-13T00:17:41;16.20;99.90
58339;DHT22;48278;52.704;6.536;2022-09-13T00:20:07;16.10;99.90
58339;DHT22;48278;52.704;6.536;2022-09-13T00:22:34;16.10;99.90
58339;DHT22;48278;52.704;6.536;2022-09-13T00:25:01;16.10;99.90
58339;DHT22;48278;52.704;6.536;2022-09-13T00:27:27;16.10;99.90
58339;DHT22;48278;52.704;6.536;2022-09-13T00:29:52;16.10;99.90
58339;DHT22;48278;52.704;6.536;2022-09-13T00:32:18;16.10;99.90
58339;DHT22;48278;52.704;6.536;2022-09-13T00:34:44;16.20;99.90
58339;DHT22;48278;52.704;6.536;2022-09-13T00:37:10;16.20;99.90
58339;DHT22;48278;52.704;6.536;2022-09-13T00:39:35;16.20;99.90
58339;DHT22;48278;52.704;6.536;2022-09-13T00:42:01;16.20;99.90
58339;DHT22;48278;52.704;6.536;2022-09-13T00:47:27;16.30;99.90
58339;DHT22;48278;52.704;6.536;2022-09-13T00:50:06;16.30;99.90
58339;DHT22;48278;52.704;6.536;2022-09-13T00:52:34;16.30;99.90
58339;DHT22;48278;52.704;6.536;2022-09-13T00:55:10;16.40;99.90
58339;DHT22;48278;52.704;6.536;2022-09-13T00:57:38;16.30;99.90
58339;DHT22;48278;52.704;6.536;2022-09-13T01:00:09;16.40;99.90
58339;DHT22;48278;52.704;6.536;2022-09-13T01:02:45;16.40;99.90
58339;DHT22;48278;52.704;6.536;2022-09-13T01:05:14;16.40;99.90
58339;DHT22;48278;52.704;6.536;2022-09-13T01:07:41;16.40;99.90
58339;DHT22;48278;52.704;6.536;2022-09-13T01:10:08;16.40;99.90
58339;DHT22;48278;52.704;6.536;2022-09-13T01:13:03;16.30;99.90
58339;DHT22;48278;52.704;6.536;2022-09-13T01:15:36;16.30;99.90
58339;DHT22;48278;52.704;6.536;2022-09-13T01:18:02;16.30;99.90
58339;DHT22;48278;52.704;6.536;2022-09-13T01:34:17;16.30;99.90
58339;DHT22;48278;52.704;6.536;2022-09-13T01:37:28;16.30;99.90
58339;DHT22;48278;52.704;6.536;2022-09-13T01:45:15;16.30;99.90
58339;DHT22;48278;52.704;6.536;2022-09-13T01:51:15;16.40;99.90
58339;DHT22;48278;52.704;6.536;2022-09-13T01:54:14;16.40;99.90
58339;DHT22;48278;52.704;6.536;2022-09-13T01:56:56;16.40;99.90
58339;DHT22;48278;52.704;6.536;2022-09-13T01:59:38;16.40;99.90
58339;DHT22;48278;52.704;6.536;2022-09-13T02:04:45;16.40;99.90
58339;DHT22;48278;52.704;6.536;2022-09-13T02:07:19;16.30;99.90
58339;DHT22;48278;52.704;6.536;2022-09-13T02:09:51;16.40;99.90
58339;DHT22;48278;52.704;6.536;2022-09-13T02:12:24;16.40;99.90
58339;DHT22;48278;52.704;6.536;2022-09-13T02:14:57;16.40;99.90
58339;DHT22;48278;52.704;6.536;2022-09-13T02:17:29;16.40;99.90
58339;DHT22;48278;52.704;6.536;2022-09-13T02:20:04;16.40;99.90
58339;DHT22;48278;52.704;6.536;2022-09-13T02:22:36;16.40;99.90
58339;DHT22;48278;52.704;6.536;2022-09-13T02:25:14;16.40;99.90
58339;DHT22;48278;52.704;6.536;2022-09-13T02:27:44;16.40;99.90
58339;DHT22;48278;52.704;6.536;2022-09-13T02:30:12;16.50;99.90
58339;DHT22;48278;52.704;6.536;2022-09-13T02:32:49;16.40;99.90
58339;DHT22;48278;52.704;6.536;2022-09-13T02:35:36;16.40;99.90
58339;DHT22;48278;52.704;6.536;2022-09-13T02:38:17;16.40;99.90
58339;DHT22;48278;52.704;6.536;2022-09-13T02:40:48;16.50;99.90
58339;DHT22;48278;52.704;6.536;2022-09-13T02:43:30;16.50;99.90
58339;DHT22;48278;52.704;6.536;2022-09-13T03:00:36;16.50;99.90
58339;DHT22;48278;52.704;6.536;2022-09-13T03:03:05;16.50;99.90
58339;DHT22;48278;52.704;6.536;2022-09-13T03:05:31;16.50;99.90
58339;DHT22;48278;52.704;6.536;2022-09-13T03:07:58;16.50;99.90
58339;DHT22;48278;52.704;6.536;2022-09-13T03:10:26;16.50;99.90
58339;DHT22;48278;52.704;6.536;2022-09-13T03:19:00;16.60;99.90
58339;DHT22;48278;52.704;6.536;2022-09-13T03:22:01;16.60;99.90
58339;DHT22;48278;52.704;6.536;2022-09-13T03:25:14;16.60;99.90
58339;DHT22;48278;52.704;6.536;2022-09-13T03:30:29;16.60;99.90
58339;DHT22;48278;52.704;6.536;2022-09-13T03:35:43;16.60;99.90
58339;DHT22;48278;52.704;6.536;2022-09-13T03:38:16;16.60;99.90
58339;DHT22;48278;52.704;6.536;2022-09-13T03:40:58;16.60;99.90
58339;DHT22;48278;52.704;6.536;2022-09-13T03:43:35;16.60;99.90
58339;DHT22;48278;52.704;6.536;2022-09-13T03:46:05;16.60;99.90
58339;DHT22;48278;52.704;6.536;2022-09-13T03:48:34;16.60;99.90
58339;DHT22;48278;52.704;6.536;2022-09-13T03:51:03;16.60;99.90
58339;DHT22;48278;52.704;6.536;2022-09-13T03:53:30;16.70;99.90
58339;DHT22;48278;52.704;6.536;2022-09-13T03:55:58;16.70;99.90
58339;DHT22;48278;52.704;6.536;2022-09-13T03:58:25;16.70;99.90
58339;DHT22;48278;52.704;6.536;2022-09-13T04:00:51;16.70;99.90
58339;DHT22;48278;52.704;6.536;2022-09-13T04:03:19;16.70;99.90
58339;DHT22;48278;52.704;6.536;2022-09-13T04:05:45;16.70;99.90
58339;DHT22;48278;52.704;6.536;2022-09-13T04:08:11;16.70;99.90
58339;DHT22;48278;52.704;6.536;2022-09-13T04:10:37;16.70;99.90
58339;DHT22;48278;52.704;6.536;2022-09-13T04:13:03;16.70;99.90
58339;DHT22;48278;52.704;6.536;2022-09-13T04:15:30;16.70;99.90
58339;DHT22;48278;52.704;6.536;2022-09-13T04:17:56;16.70;99.90
58339;DHT22;48278;52.704;6.536;2022-09-13T04:20:22;16.70;99.90
58339;DHT22;48278;52.704;6.536;2022-09-13T04:22:53;16.70;99.90
58339;DHT22;48278;52.704;6.536;2022-09-13T04:25:20;16.70;99.90
58339;DHT22;48278;52.704;6.536;2022-09-13T04:27:47;16.70;99.90
58339;DHT22;48278;52.704;6.536;2022-09-13T04:30:13;16.70;99.90
58339;DHT22;48278;52.704;6.536;2022-09-13T04:32:42;16.80;99.90
58339;DHT22;48278;52.704;6.536;2022-09-13T04:35:09;16.70;99.90
58339;DHT22;48278;52.704;6.536;2022-09-13T04:37:35;16.70;99.90
58339;DHT22;48278;52.704;6.536;2022-09-13T04:40:01;16.70;99.90
58339;DHT22;48278;52.704;6.536;2022-09-13T04:42:27;16.70;99.90
58339;DHT22;48278;52.704;6.536;2022-09-13T04:44:52;16.70;99.90
58339;DHT22;48278;52.704;6.536;2022-09-13T04:47:20;16.70;99.90
58339;DHT22;48278;52.704;6.536;2022-09-13T04:49:46;16.70;99.90
58339;DHT22;48278;52.704;6.536;2022-09-13T04:52:13;16.70;99.90
58339;DHT22;48278;52.704;6.536;2022-09-13T04:54:38;16.70;99.90
58339;DHT22;48278;52.704;6.536;2022-09-13T04:57:04;16.70;99.90
58339;DHT22;48278;52.704;6.536;2022-09-13T04:59:30;16.70;99.90
58339;DHT22;48278;52.704;6.536;2022-09-13T05:01:56;16.70;99.90
58339;DHT22;48278;52.704;6.536;2022-09-13T05:04:22;16.70;99.90
58339;DHT22;48278;52.704;6.536;2022-09-13T05:06:47;16.80;99.90
58339;DHT22;48278;52.704;6.536;2022-09-13T05:09:14;16.80;99.90
58339;DHT22;48278;52.704;6.536;2022-09-13T05:11:40;16.80;99.90
58339;DHT22;48278;52.704;6.536;2022-09-13T05:14:08;16.80;99.90
58339;DHT22;48278;52.704;6.536;2022-09-13T05:16:34;16.80;99.90
58339;DHT22;48278;52.704;6.536;2022-09-13T05:19:00;16.80;99.90
58339;DHT22;48278;52.704;6.536;2022-09-13T05:21:26;16.80;99.90
58339;DHT22;48278;52.704;6.536;2022-09-13T05:23:53;16.90;99.90
58339;DHT22;48278;52.704;6.536;2022-09-13T05:26:20;16.80;99.90
58339;DHT22;48278;52.704;6.536;2022-09-13T05:28:46;16.90;99.90
58339;DHT22;48278;52.704;6.536;2022-09-13T05:31:15;16.90;99.90
58339;DHT22;48278;52.704;6.536;2022-09-13T05:33:41;16.90;99.90
58339;DHT22;48278;52.704;6.536;2022-09-13T05:36:07;16.90;99.90
58339;DHT22;48278;52.704;6.536;2022-09-13T05:38:33;16.90;99.90
58339;DHT22;48278;52.704;6.536;2022-09-13T05:41:01;17.00;99.90
58339;DHT22;48278;52.704;6.536;2022-09-13T05:43:30;17.00;99.90
58339;DHT22;48278;52.704;6.536;2022-09-13T05:46:04;17.00;99.90
58339;DHT22;48278;52.704;6.536;2022-09-13T05:48:31;17.00;99.90
58339;DHT22;48278;52.704;6.536;2022-09-13T05:51:06;17.00;99.90
58339;DHT22;48278;52.704;6.536;2022-09-13T05:53:34;17.10;99.90
58339;DHT22;48278;52.704;6.536;2022-09-13T05:56:00;17.10;99.90
58339;DHT22;48278;52.704;6.536;2022-09-13T05:58:25;17.10;99.90
58339;DHT22;48278;52.704;6.536;2022-09-13T06:00:55;17.20;99.90
58339;DHT22;48278;52.704;6.536;2022-09-13T06:03:24;17.20;99.90
58339;DHT22;48278;52.704;6.536;2022-09-13T06:05:54;17.20;99.90
58339;DHT22;48278;52.704;6.536;2022-09-13T06:08:21;17.20;99.90
58339;DHT22;48278;52.704;6.536;2022-09-13T06:11:13;17.20;99.90
58339;DHT22;48278;52.704;6.536;2022-09-13T06:13:40;17.30;99.90
58339;DHT22;48278;52.704;6.536;2022-09-13T06:16:10;17.30;99.90
58339;DHT22;48278;52.704;6.536;2022-09-13T06:18:36;17.30;99.90
58339;DHT22;48278;52.704;6.536;2022-09-13T06:21:05;17.40;99.90
58339;DHT22;48278;52.704;6.536;2022-09-13T06:23:31;17.40;99.90
58339;DHT22;48278;52.704;6.536;2022-09-13T06:26:03;17.30;99.90
58339;DHT22;48278;52.704;6.536;2022-09-13T06:28:29;17.30;99.90
58339;DHT22;48278;52.704;6.536;2022-09-13T06:31:03;17.40;99.90
58339;DHT22;48278;52.704;6.536;2022-09-13T06:33:31;17.40;99.90
58339;DHT22;48278;52.704;6.536;2022-09-13T06:36:03;17.40;99.90
58339;DHT22;48278;52.704;6.536;2022-09-13T06:38:29;17.40;99.90
58339;DHT22;48278;52.704;6.536;2022-09-13T06:41:07;17.40;99.90
58339;DHT22;48278;52.704;6.536;2022-09-13T06:43:34;17.30;99.90
58339;DHT22;48278;52.704;6.536;2022-09-13T06:46:19;17.30;99.90
58339;DHT22;48278;52.704;6.536;2022-09-13T06:48:45;17.30;99.90
58339;DHT22;48278;52.704;6.536;2022-09-13T06:51:16;17.30;99.90
58339;DHT22;48278;52.704;6.536;2022-09-13T06:53:44;17.30;99.90
58339;DHT22;48278;52.704;6.536;2022-09-13T06:56:15;17.30;99.90
58339;DHT22;48278;52.704;6.536;2022-09-13T06:58:43;17.30;99.90
58339;DHT22;48278;52.704;6.536;2022-09-13T07:01:13;17.30;99.90
58339;DHT22;48278;52.704;6.536;2022-09-13T07:03:48;17.30;99.90
58339;DHT22;48278;52.704;6.536;2022-09-13T07:06:26;17.30;99.90
58339;DHT22;48278;52.704;6.536;2022-09-13T07:08:52;17.30;99.90
58339;DHT22;48278;52.704;6.536;2022-09-13T07:11:20;17.30;99.90
58339;DHT22;48278;52.704;6.536;2022-09-13T07:13:50;17.20;99.90
58339;DHT22;48278;52.704;6.536;2022-09-13T07:16:17;17.20;99.90
58339;DHT22;48278;52.704;6.536;2022-09-13T07:18:44;17.20;99.90
58339;DHT22;48278;52.704;6.536;2022-09-13T07:21:11;17.30;99.90
58339;DHT22;48278;52.704;6.536;2022-09-13T07:23:38;17.30;99.90
58339;DHT22;48278;52.704;6.536;2022-09-13T07:26:05;17.30;99.90
58339;DHT22;48278;52.704;6.536;2022-09-13T07:28:36;17.20;99.90
58339;DHT22;48278;52.704;6.536;2022-09-13T07:31:14;17.20;99.90
58339;DHT22;48278;52.704;6.536;2022-09-13T07:33:43;17.30;99.90
58339;DHT22;48278;52.704;6.536;2022-09-13T07:36:10;17.30;99.90
58339;DHT22;48278;52.704;6.536;2022-09-13T07:38:38;17.30;99.90
58339;DHT22;48278;52.704;6.536;2022-09-13T07:41:05;17.40;99.90
58339;DHT22;48278;52.704;6.536;2022-09-13T07:43:33;17.40;99.90
58339;DHT22;48278;52.704;6.536;2022-09-13T07:46:12;17.50;99.90
58339;DHT22;48278;52.704;6.536;2022-09-13T07:48:40;17.50;99.90
58339;DHT22;48278;52.704;6.536;2022-09-13T07:53:35;17.70;99.90
58339;DHT22;48278;52.704;6.536;2022-09-13T07:56:10;17.80;99.90
58339;DHT22;48278;52.704;6.536;2022-09-13T07:58:38;17.80;99.90
58339;DHT22;48278;52.704;6.536;2022-09-13T08:01:24;17.90;99.90
58339;DHT22;48278;52.704;6.536;2022-09-13T08:04:01;18.00;99.90
58339;DHT22;48278;52.704;6.536;2022-09-13T08:06:30;18.00;99.90
58339;DHT22;48278;52.704;6.536;2022-09-13T08:08:56;18.10;99.90
58339;DHT22;48278;52.704;6.536;2022-09-13T08:11:31;18.10;99.90
58339;DHT22;48278;52.704;6.536;2022-09-13T08:13:58;18.20;99.90
58339;DHT22;48278;52.704;6.536;2022-09-13T08:16:25;18.20;99.90
58339;DHT22;48278;52.704;6.536;2022-09-13T08:18:53;18.30;99.90
58339;DHT22;48278;52.704;6.536;2022-09-13T08:21:20;18.30;99.90
58339;DHT22;48278;52.704;6.536;2022-09-13T08:23:46;18.40;99.90
58339;DHT22;48278;52.704;6.536;2022-09-13T08:26:12;18.40;99.90
58339;DHT22;48278;52.704;6.536;2022-09-13T08:28:39;18.40;99.90
58339;DHT22;48278;52.704;6.536;2022-09-13T08:31:10;18.50;99.90
58339;DHT22;48278;52.704;6.536;2022-09-13T08:33:36;18.40;99.90
58339;DHT22;48278;52.704;6.536;2022-09-13T08:36:03;18.40;99.90
58339;DHT22;48278;52.704;6.536;2022-09-13T08:38:31;18.40;99.90
58339;DHT22;48278;52.704;6.536;2022-09-13T08:43:49;18.40;99.90
58339;DHT22;48278;52.704;6.536;2022-09-13T08:46:38;18.40;99.90
58339;DHT22;48278;52.704;6.536;2022-09-13T08:49:10;18.50;99.90
58339;DHT22;48278;52.704;6.536;2022-09-13T08:51:48;18.70;99.90
58339;DHT22;48278;52.704;6.536;2022-09-13T08:54:16;18.90;99.90
58339;DHT22;48278;52.704;6.536;2022-09-13T08:59:38;19.20;99.90
58339;DHT22;48278;52.704;6.536;2022-09-13T09:02:35;19.40;99.90
58339;DHT22;48278;52.704;6.536;2022-09-13T09:05:17;19.50;99.90
58339;DHT22;48278;52.704;6.536;2022-09-13T09:10:24;19.50;99.90
58339;DHT22;48278;52.704;6.536;2022-09-13T09:13:01;19.20;99.90
58339;DHT22;48278;52.704;6.536;2022-09-13T09:15:41;19.10;99.90
58339;DHT22;48278;52.704;6.536;2022-09-13T09:18:21;19.10;99.90
58339;DHT22;48278;52.704;6.536;2022-09-13T09:20:50;19.00;99.90
58339;DHT22;48278;52.704;6.536;2022-09-13T09:23:24;19.10;99.90
58339;DHT22;48278;52.704;6.536;2022-09-13T09:26:07;19.30;99.90
58339;DHT22;48278;52.704;6.536;2022-09-13T09:28:35;19.40;99.90
58339;DHT22;48278;52.704;6.536;2022-09-13T09:31:09;19.50;99.90
58339;DHT22;48278;52.704;6.536;2022-09-13T09:33:45;19.60;99.90
58339;DHT22;48278;52.704;6.536;2022-09-13T09:36:21;19.80;99.90
58339;DHT22;48278;52.704;6.536;2022-09-13T09:38:49;19.80;99.90
58339;DHT22;48278;52.704;6.536;2022-09-13T09:41:32;19.60;99.90
58339;DHT22;48278;52.704;6.536;2022-09-13T09:47:09;19.50;99.90
58339;DHT22;48278;52.704;6.536;2022-09-13T09:49:48;19.40;99.90
58339;DHT22;48278;52.704;6.536;2022-09-13T09:53:02;19.50;99.90
58339;DHT22;48278;52.704;6.536;2022-09-13T09:58:02;19.60;99.90
58339;DHT22;48278;52.704;6.536;2022-09-13T10:00:36;19.50;99.90
58339;DHT22;48278;52.704;6.536;2022-09-13T10:03:13;19.40;99.90
58339;DHT22;48278;52.704;6.536;2022-09-13T10:05:41;19.60;99.90
58339;DHT22;48278;52.704;6.536;2022-09-13T10:08:29;19.70;99.90
58339;DHT22;48278;52.704;6.536;2022-09-13T10:10:56;19.80;99.90
58339;DHT22;48278;52.704;6.536;2022-09-13T10:13:24;20.10;99.90
58339;DHT22;48278;52.704;6.536;2022-09-13T10:15:54;20.30;99.90
58339;DHT22;48278;52.704;6.536;2022-09-13T10:18:21;20.50;99.90
58339;DHT22;48278;52.704;6.536;2022-09-13T10:21:05;20.60;99.90
58339;DHT22;48278;52.704;6.536;2022-09-13T10:23:33;20.80;99.90
58339;DHT22;48278;52.704;6.536;2022-09-13T10:26:18;20.70;99.90
58339;DHT22;48278;52.704;6.536;2022-09-13T10:31:20;20.20;99.90
58339;DHT22;48278;52.704;6.536;2022-09-13T10:34:13;20.00;99.90
58339;DHT22;48278;52.704;6.536;2022-09-13T10:36:55;19.90;99.90
58339;DHT22;48278;52.704;6.536;2022-09-13T10:39:23;19.90;99.90
58339;DHT22;48278;52.704;6.536;2022-09-13T10:41:56;20.10;99.90
58339;DHT22;48278;52.704;6.536;2022-09-13T10:47:05;20.50;99.90
58339;DHT22;48278;52.704;6.536;2022-09-13T11:04:01;21.20;99.90
58339;DHT22;48278;52.704;6.536;2022-09-13T11:12:16;20.60;99.90
58339;DHT22;48278;52.704;6.536;2022-09-13T11:20:31;20.60;99.90
58339;DHT22;48278;52.704;6.536;2022-09-13T11:23:10;20.80;99.90
58339;DHT22;48278;52.704;6.536;2022-09-13T11:34:20;21.70;99.90
58339;DHT22;48278;52.704;6.536;2022-09-13T11:43:02;21.00;99.90
58339;DHT22;48278;52.704;6.536;2022-09-13T11:45:50;20.90;99.90
58339;DHT22;48278;52.704;6.536;2022-09-13T11:48:41;20.80;99.90
58339;DHT22;48278;52.704;6.536;2022-09-13T12:01:45;20.90;99.90
58339;DHT22;48278;52.704;6.536;2022-09-13T12:04:18;20.80;99.90
58339;DHT22;48278;52.704;6.536;2022-09-13T12:07:08;20.70;99.90
58339;DHT22;48278;52.704;6.536;2022-09-13T12:09:50;20.80;99.90
58339;DHT22;48278;52.704;6.536;2022-09-13T12:12:18;20.90;99.90
58339;DHT22;48278;52.704;6.536;2022-09-13T12:14:56;21.00;99.90
58339;DHT22;48278;52.704;6.536;2022-09-13T12:17:36;20.90;99.90
58339;DHT22;48278;52.704;6.536;2022-09-13T12:20:10;20.80;99.90
58339;DHT22;48278;52.704;6.536;2022-09-13T12:22:37;20.80;99.90
58339;DHT22;48278;52.704;6.536;2022-09-13T12:25:16;20.90;99.90
58339;DHT22;48278;52.704;6.536;2022-09-13T12:28:09;21.10;99.90
58339;DHT22;48278;52.704;6.536;2022-09-13T12:30:51;21.40;99.90
58339;DHT22;48278;52.704;6.536;2022-09-13T12:33:18;21.50;99.90
58339;DHT22;48278;52.704;6.536;2022-09-13T12:44:10;21.60;99.90
58339;DHT22;48278;52.704;6.536;2022-09-13T12:49:53;21.40;99.90
58339;DHT22;48278;52.704;6.536;2022-09-13T12:52:44;21.20;99.90
58339;DHT22;48278;52.704;6.536;2022-09-13T13:01:06;21.40;99.90
58339;DHT22;48278;52.704;6.536;2022-09-13T13:03:40;21.50;99.90
58339;DHT22;48278;52.704;6.536;2022-09-13T13:08:51;21.40;99.90
58339;DHT22;48278;52.704;6.536;2022-09-13T13:11:22;21.40;99.90
58339;DHT22;48278;52.704;6.536;2022-09-13T13:13:56;21.20;99.90
58339;DHT22;48278;52.704;6.536;2022-09-13T13:16:31;21.20;99.90
58339;DHT22;48278;52.704;6.536;2022-09-13T13:19:03;20.90;99.90
58339;DHT22;48278;52.704;6.536;2022-09-13T13:21:39;21.10;99.90
58339;DHT22;48278;52.704;6.536;2022-09-13T13:26:51;21.30;99.90
58339;DHT22;48278;52.704;6.536;2022-09-13T13:29:31;21.30;99.90
58339;DHT22;48278;52.704;6.536;2022-09-13T13:37:00;21.20;99.90
58339;DHT22;48278;52.704;6.536;2022-09-13T13:52:37;21.40;99.90
58339;DHT22;48278;52.704;6.536;2022-09-13T14:00:52;21.40;99.90
58339;DHT22;48278;52.704;6.536;2022-09-13T14:20:32;21.40;99.90
58339;DHT22;48278;52.704;6.536;2022-09-13T14:23:18;21.30;99.90
58339;DHT22;48278;52.704;6.536;2022-09-13T14:25:45;21.20;99.90
58339;DHT22;48278;52.704;6.536;2022-09-13T14:28:16;21.10;99.90
58339;DHT22;48278;52.704;6.536;2022-09-13T14:30:57;21.10;99.90
58339;DHT22;48278;52.704;6.536;2022-09-13T14:33:42;21.00;99.90
58339;DHT22;48278;52.704;6.536;2022-09-13T14:36:17;20.80;99.90
58339;DHT22;48278;52.704;6.536;2022-09-13T14:38:53;20.80;99.90
58339;DHT22;48278;52.704;6.536;2022-09-13T14:41:29;20.80;99.90
58339;DHT22;48278;52.704;6.536;2022-09-13T14:44:16;20.80;99.90
58339;DHT22;48278;52.704;6.536;2022-09-13T14:46:44;20.70;99.90
58339;DHT22;48278;52.704;6.536;2022-09-13T14:49:19;20.60;99.90
58339;DHT22;48278;52.704;6.536;2022-09-13T14:52:03;20.60;99.90
58339;DHT22;48278;52.704;6.536;2022-09-13T14:54:51;20.60;99.90
58339;DHT22;48278;52.704;6.536;2022-09-13T14:57:42;20.70;99.90
58339;DHT22;48278;52.704;6.536;2022-09-13T15:00:17;20.80;99.90
58339;DHT22;48278;52.704;6.536;2022-09-13T15:02:57;20.60;99.90
58339;DHT22;48278;52.704;6.536;2022-09-13T15:05:27;20.60;99.90
58339;DHT22;48278;52.704;6.536;2022-09-13T15:07:53;20.60;99.90
58339;DHT22;48278;52.704;6.536;2022-09-13T15:10:32;20.50;99.90
58339;DHT22;48278;52.704;6.536;2022-09-13T15:13:09;20.50;99.90
58339;DHT22;48278;52.704;6.536;2022-09-13T15:15:41;20.50;99.90
58339;DHT22;48278;52.704;6.536;2022-09-13T15:20:52;20.60;99.90
58339;DHT22;48278;52.704;6.536;2022-09-13T15:25:51;20.60;99.90
58339;DHT22;48278;52.704;6.536;2022-09-13T15:28:28;20.60;99.90
58339;DHT22;48278;52.704;6.536;2022-09-13T15:30:56;20.60;99.90
58339;DHT22;48278;52.704;6.536;2022-09-13T15:33:26;20.60;99.90
58339;DHT22;48278;52.704;6.536;2022-09-13T15:36:21;20.50;99.90
58339;DHT22;48278;52.704;6.536;2022-09-13T15:41:35;20.40;99.90
58339;DHT22;48278;52.704;6.536;2022-09-13T15:44:02;20.40;99.90
58339;DHT22;48278;52.704;6.536;2022-09-13T15:46:29;20.40;99.90
58339;DHT22;48278;52.704;6.536;2022-09-13T15:49:00;20.40;99.90
58339;DHT22;48278;52.704;6.536;2022-09-13T15:51:27;20.40;99.90
58339;DHT22;48278;52.704;6.536;2022-09-13T15:53:53;20.40;99.90
58339;DHT22;48278;52.704;6.536;2022-09-13T15:56:29;20.40;99.90
58339;DHT22;48278;52.704;6.536;2022-09-13T15:58:56;20.40;99.90
58339;DHT22;48278;52.704;6.536;2022-09-13T16:01:22;20.30;99.90
58339;DHT22;48278;52.704;6.536;2022-09-13T16:03:48;20.30;99.90
58339;DHT22;48278;52.704;6.536;2022-09-13T16:06:14;20.20;99.90
58339;DHT22;48278;52.704;6.536;2022-09-13T16:08:40;20.00;99.90
58339;DHT22;48278;52.704;6.536;2022-09-13T16:11:06;20.00;99.90
58339;DHT22;48278;52.704;6.536;2022-09-13T16:13:32;20.00;99.90
58339;DHT22;48278;52.704;6.536;2022-09-13T16:15:58;20.00;99.90
58339;DHT22;48278;52.704;6.536;2022-09-13T16:18:25;19.70;99.90
58339;DHT22;48278;52.704;6.536;2022-09-13T16:20:51;19.80;99.90
58339;DHT22;48278;52.704;6.536;2022-09-13T16:23:17;19.70;99.90
58339;DHT22;48278;52.704;6.536;2022-09-13T16:25:42;19.70;99.90
58339;DHT22;48278;52.704;6.536;2022-09-13T16:28:15;19.60;99.90
58339;DHT22;48278;52.704;6.536;2022-09-13T16:30:42;19.60;99.90
58339;DHT22;48278;52.704;6.536;2022-09-13T16:33:08;19.60;99.90
58339;DHT22;48278;52.704;6.536;2022-09-13T16:35:35;19.60;99.90
58339;DHT22;48278;52.704;6.536;2022-09-13T16:38:01;19.50;99.90
58339;DHT22;48278;52.704;6.536;2022-09-13T16:40:26;19.50;99.90
58339;DHT22;48278;52.704;6.536;2022-09-13T16:42:52;19.40;99.90
58339;DHT22;48278;52.704;6.536;2022-09-13T16:45:19;19.30;99.90
58339;DHT22;48278;52.704;6.536;2022-09-13T16:47:45;19.20;99.90
58339;DHT22;48278;52.704;6.536;2022-09-13T16:50:12;19.10;99.90
58339;DHT22;48278;52.704;6.536;2022-09-13T16:52:38;19.10;99.90
58339;DHT22;48278;52.704;6.536;2022-09-13T16:55:04;18.90;99.90
58339;DHT22;48278;52.704;6.536;2022-09-13T16:57:30;18.90;99.90
58339;DHT22;48278;52.704;6.536;2022-09-13T16:59:56;18.80;99.90
58339;DHT22;48278;52.704;6.536;2022-09-13T17:02:24;18.70;99.90
58339;DHT22;48278;52.704;6.536;2022-09-13T17:04:50;18.70;99.90
58339;DHT22;48278;52.704;6.536;2022-09-13T17:07:15;18.60;99.90
58339;DHT22;48278;52.704;6.536;2022-09-13T17:09:41;18.50;99.90
58339;DHT22;48278;52.704;6.536;2022-09-13T17:12:09;18.40;99.90
58339;DHT22;48278;52.704;6.536;2022-09-13T17:14:35;18.40;99.90
58339;DHT22;48278;52.704;6.536;2022-09-13T17:17:01;18.30;99.90
58339;DHT22;48278;52.704;6.536;2022-09-13T17:19:31;18.20;99.90
58339;DHT22;48278;52.704;6.536;2022-09-13T17:22:02;18.20;99.90
58339;DHT22;48278;52.704;6.536;2022-09-13T17:24:30;18.10;99.90
58339;DHT22;48278;52.704;6.536;2022-09-13T17:26:57;18.00;99.90
58339;DHT22;48278;52.704;6.536;2022-09-13T17:29:23;18.00;99.90
58339;DHT22;48278;52.704;6.536;2022-09-13T17:31:50;17.80;99.90
58339;DHT22;48278;52.704;6.536;2022-09-13T17:34:16;17.80;99.90
58339;DHT22;48278;52.704;6.536;2022-09-13T17:36:42;17.60;99.90
58339;DHT22;48278;52.704;6.536;2022-09-13T17:39:09;17.60;99.90
58339;DHT22;48278;52.704;6.536;2022-09-13T17:41:35;17.50;99.90
58339;DHT22;48278;52.704;6.536;2022-09-13T17:44:01;17.40;99.90
58339;DHT22;48278;52.704;6.536;2022-09-13T17:46:28;17.40;99.90
58339;DHT22;48278;52.704;6.536;2022-09-13T17:48:56;17.30;99.90
58339;DHT22;48278;52.704;6.536;2022-09-13T17:51:26;17.20;99.90
58339;DHT22;48278;52.704;6.536;2022-09-13T17:53:57;17.20;99.90
58339;DHT22;48278;52.704;6.536;2022-09-13T17:56:32;17.20;99.90
58339;DHT22;48278;52.704;6.536;2022-09-13T17:59:16;17.10;99.90
58339;DHT22;48278;52.704;6.536;2022-09-13T18:01:47;17.00;99.90
58339;DHT22;48278;52.704;6.536;2022-09-13T18:04:15;16.90;99.90
58339;DHT22;48278;52.704;6.536;2022-09-13T18:06:41;16.90;99.90
58339;DHT22;48278;52.704;6.536;2022-09-13T18:09:12;16.80;99.90
58339;DHT22;48278;52.704;6.536;2022-09-13T18:11:38;16.80;99.90
58339;DHT22;48278;52.704;6.536;2022-09-13T18:14:06;16.70;99.90
58339;DHT22;48278;52.704;6.536;2022-09-13T18:16:32;16.70;99.90
58339;DHT22;48278;52.704;6.536;2022-09-13T18:18:59;16.60;99.90
58339;DHT22;48278;52.704;6.536;2022-09-13T18:21:25;16.60;99.90
58339;DHT22;48278;52.704;6.536;2022-09-13T18:23:55;16.50;99.90
58339;DHT22;48278;52.704;6.536;2022-09-13T18:26:23;16.50;99.90
58339;DHT22;48278;52.704;6.536;2022-09-13T18:28:58;16.40;99.90
58339;DHT22;48278;52.704;6.536;2022-09-13T18:31:26;16.40;99.90
58339;DHT22;48278;52.704;6.536;2022-09-13T18:33:57;16.30;99.90
58339;DHT22;48278;52.704;6.536;2022-09-13T18:36:24;16.30;99.90
58339;DHT22;48278;52.704;6.536;2022-09-13T18:41:22;16.20;99.90
58339;DHT22;48278;52.704;6.536;2022-09-13T18:43:51;16.10;99.90
58339;DHT22;48278;52.704;6.536;2022-09-13T18:46:19;16.10;99.90
58339;DHT22;48278;52.704;6.536;2022-09-13T18:48:50;16.00;99.90
58339;DHT22;48278;52.704;6.536;2022-09-13T18:51:20;16.00;99.90
58339;DHT22;48278;52.704;6.536;2022-09-13T18:53:47;15.90;99.90
58339;DHT22;48278;52.704;6.536;2022-09-13T18:56:15;15.90;99.90
58339;DHT22;48278;52.704;6.536;2022-09-13T18:58:42;15.80;99.90
58339;DHT22;48278;52.704;6.536;2022-09-13T19:01:09;15.80;99.90
58339;DHT22;48278;52.704;6.536;2022-09-13T19:03:36;15.80;99.90
58339;DHT22;48278;52.704;6.536;2022-09-13T19:06:22;15.80;99.90
58339;DHT22;48278;52.704;6.536;2022-09-13T19:08:51;15.70;99.90
58339;DHT22;48278;52.704;6.536;2022-09-13T19:11:18;15.60;99.90
58339;DHT22;48278;52.704;6.536;2022-09-13T19:13:44;15.60;99.90
58339;DHT22;48278;52.704;6.536;2022-09-13T19:16:13;15.60;99.90